Time;durP1;ratioP1;P1;durP2;ratioP2;P2;SDS_P1;SDS_P2;PMS_P1;PMS_P2;Temp;Humidity;BMP_temperature;BMP_pressure;BME280_temperature;BME280_humidity;BME280_pressure;Samples;Min_cycle;Max_cycle;Signal;HPM_P1;HPM_P2
2021/11/10 00:02:33;;;;;;;61.00;37.20;;;;;;;2.18;89.69;100455.52;2205924;81;21371;-77
2021/11/10 00:05:33;;;;;;;60.07;37.27;;;;;;;2.19;89.86;100456.02;2206253;81;21007;-79
2021/11/10 00:08:34;;;;;;;63.93;36.87;;;;;;;2.22;90.15;100457.13;2206230;81;20949;-80
2021/11/10 00:11:34;;;;;;;60.77;36.23;;;;;;;2.27;90.68;100460.02;2206498;81;20971;-79
2021/11/10 00:14:35;;;;;;;68.40;39.50;;;;;;;2.28;90.41;100451.50;2206078;81;21401;-79
2021/11/10 00:17:36;;;;;;;64.10;39.27;;;;;;;2.29;90.83;100442.98;2206190;81;21344;-78
2021/11/10 00:20:36;;;;;;;66.83;39.60;;;;;;;2.29;90.43;100437.83;2206641;81;20961;-78
2021/11/10 00:23:37;;;;;;;60.83;40.00;;;;;;;2.31;90.33;100447.85;2206578;81;20918;-79
2021/11/10 00:26:37;;;;;;;66.97;39.20;;;;;;;2.31;90.30;100458.55;2206745;81;20949;-79
2021/11/10 00:29:38;;;;;;;66.07;39.17;;;;;;;2.31;90.24;100455.58;2219505;79;21003;-79
2021/11/10 00:32:38;;;;;;;68.40;41.63;;;;;;;2.30;90.12;100455.08;2227201;80;20936;-79
2021/11/10 00:35:38;;;;;;;67.13;38.93;;;;;;;2.31;90.00;100455.98;2227262;80;20972;-79
2021/11/10 00:38:39;;;;;;;67.97;39.90;;;;;;;2.29;89.90;100462.31;2227028;80;20929;-80
2021/11/10 00:41:40;;;;;;;68.13;41.27;;;;;;;2.28;89.81;100479.84;2226790;80;20968;-79
2021/11/10 00:44:40;;;;;;;75.70;42.60;;;;;;;2.27;89.65;100487.47;2226471;80;20939;-79
2021/11/10 00:47:41;;;;;;;73.60;42.17;;;;;;;2.30;89.58;100495.02;2225967;80;20947;-80
2021/11/10 00:50:41;;;;;;;72.33;42.63;;;;;;;2.31;89.50;100498.49;2227217;80;21304;-79
2021/11/10 00:53:42;;;;;;;65.37;40.77;;;;;;;2.32;89.35;100494.73;2227038;80;20940;-80
2021/11/10 00:56:42;;;;;;;72.37;43.20;;;;;;;2.33;89.27;100499.11;2227178;80;20989;-78
2021/11/10 00:59:43;;;;;;;79.00;44.97;;;;;;;2.36;89.33;100503.19;2226985;80;20996;-80
2021/11/10 01:02:46;;;;;;;79.27;42.80;;;;;;;2.40;89.20;100510.34;2227148;80;21330;-80
2021/11/10 01:05:46;;;;;;;77.73;43.47;;;;;;;2.46;89.13;100505.63;2226956;80;20971;-80
2021/11/10 01:08:47;;;;;;;78.70;44.40;;;;;;;2.49;88.96;100507.13;2226970;80;21367;-80
2021/11/10 01:11:47;;;;;;;84.13;41.77;;;;;;;2.56;88.96;100507.16;2227031;80;21006;-79
2021/11/10 01:14:48;;;;;;;77.73;44.17;;;;;;;2.60;88.96;100513.06;2226789;80;20955;-79
2021/11/10 01:17:49;;;;;;;80.17;44.37;;;;;;;2.66;88.87;100507.44;2226621;80;20979;-79
2021/11/10 01:20:49;;;;;;;83.87;45.17;;;;;;;2.73;88.75;100490.31;2226421;80;20991;-79
2021/11/10 01:23:49;;;;;;;89.23;45.87;;;;;;;2.78;88.51;100493.70;2226715;80;20999;-80
2021/11/10 01:26:50;;;;;;;101.20;46.17;;;;;;;2.82;88.46;100480.63;2226862;80;20947;-79
2021/11/10 01:29:50;;;;;;;90.83;44.43;;;;;;;2.87;88.21;100479.25;2221921;80;21825;-79
2021/11/10 01:32:51;;;;;;;95.47;45.60;;;;;;;2.88;88.21;100478.06;2219097;80;21371;-80
2021/11/10 01:35:51;;;;;;;132.27;45.73;;;;;;;2.90;88.35;100466.56;2219426;80;20959;-80
2021/11/10 01:38:52;;;;;;;191.47;42.97;;;;;;;2.92;88.30;100461.51;2219370;80;21007;-79
2021/11/10 01:41:53;;;;;;;130.57;40.43;;;;;;;2.93;88.45;100449.11;2218907;80;21035;-80
2021/11/10 01:44:53;;;;;;;156.93;42.37;;;;;;;2.95;88.43;100438.10;2219568;80;21352;-80
2021/11/10 01:47:54;;;;;;;133.80;40.33;;;;;;;2.95;88.42;100435.52;2219486;80;20976;-81
2021/11/10 01:50:54;;;;;;;145.97;39.83;;;;;;;2.93;88.39;100414.28;2219709;80;20944;-79
2021/11/10 01:53:55;;;;;;;144.70;39.27;;;;;;;2.94;88.37;100427.28;2219785;80;20971;-79
2021/11/10 01:56:55;;;;;;;130.73;38.63;;;;;;;2.96;88.58;100436.02;2219649;80;20932;-78
2021/11/10 01:59:56;;;;;;;125.63;38.13;;;;;;;3.00;88.61;100435.83;2219647;80;21107;-80
2021/11/10 02:02:57;;;;;;;130.20;37.07;;;;;;;3.02;88.46;100441.59;2220005;80;21016;-79
2021/11/10 02:05:57;;;;;;;141.10;36.90;;;;;;;3.04;88.48;100442.98;2219780;80;20963;-81
2021/11/10 02:08:58;;;;;;;116.83;35.57;;;;;;;3.05;88.42;100431.48;2219144;80;20971;-79
2021/11/10 02:11:58;;;;;;;116.10;34.63;;;;;;;3.07;88.33;100430.28;2218970;80;20947;-80
2021/11/10 02:14:59;;;;;;;112.33;33.67;;;;;;;3.06;88.16;100425.52;2219208;80;21315;-80
2021/11/10 02:18:01;;;;;;;95.97;33.80;;;;;;;3.05;88.14;100425.42;2219319;80;20957;-79
2021/11/10 02:21:02;;;;;;;94.23;34.17;;;;;;;3.03;88.05;100424.03;2219395;80;20995;-79
2021/11/10 02:24:02;;;;;;;114.97;32.10;;;;;;;3.05;88.06;100419.86;2219901;80;21312;-80
2021/11/10 02:27:03;;;;;;;112.50;32.87;;;;;;;3.03;87.89;100426.61;2220142;80;20949;-79
2021/11/10 02:30:03;;;;;;;131.73;34.97;;;;;;;3.00;87.99;100423.83;2219421;80;21055;-81
2021/11/10 02:33:04;;;;;;;119.50;35.27;;;;;;;3.00;87.99;100423.83;2219844;80;20971;-80
2021/11/10 02:36:04;;;;;;;146.47;34.93;;;;;;;2.99;87.85;100438.80;2219622;80;20937;-79
2021/11/10 02:39:05;;;;;;;135.03;36.33;;;;;;;3.03;88.12;100442.09;2218986;80;21435;-79
2021/11/10 02:42:05;;;;;;;144.27;34.90;;;;;;;3.04;87.96;100442.59;2218878;80;21363;-79
2021/11/10 02:45:07;;;;;;;132.87;35.40;;;;;;;3.06;87.90;100451.72;2219841;80;20984;-79
2021/11/10 02:48:09;;;;;;;95.93;34.43;;;;;;;3.07;87.90;100437.63;2219706;80;20908;-79
2021/11/10 02:51:09;;;;;;;111.73;34.73;;;;;;;3.12;87.91;100434.95;2219796;80;20960;-79
2021/11/10 02:54:10;;;;;;;98.60;34.33;;;;;;;3.13;87.76;100443.20;2219757;80;21367;-79
2021/11/10 02:57:10;;;;;;;113.90;35.07;;;;;;;3.17;87.82;100446.87;2219803;80;20917;-79
2021/11/10 03:00:13;;;;;;;104.30;33.93;;;;;;;3.18;87.79;100434.08;2219547;80;21015;-81
2021/11/10 03:03:13;;;;;;;80.20;31.27;;;;;;;3.19;87.73;100437.16;2219203;80;20964;-80
2021/11/10 03:06:14;;;;;;;82.10;32.77;;;;;;;3.20;87.60;100434.17;2219005;80;20948;-80
2021/11/10 03:09:14;;;;;;;92.33;31.97;;;;;;;3.22;87.56;100426.53;2219511;80;20932;-80
2021/11/10 03:12:15;;;;;;;85.93;30.27;;;;;;;3.20;87.56;100431.59;2219600;80;20941;-80
2021/11/10 03:15:16;;;;;;;91.97;32.10;;;;;;;3.23;87.54;100434.77;2219598;80;21320;-80
2021/11/10 03:18:16;;;;;;;72.67;31.60;;;;;;;3.23;87.41;100434.77;2220030;80;20964;-81
2021/11/10 03:21:16;;;;;;;96.00;30.80;;;;;;;3.18;87.32;100434.08;2219906;80;20948;-80
2021/11/10 03:24:17;;;;;;;80.73;29.40;;;;;;;3.19;87.33;100438.84;2219954;80;20996;-80
2021/11/10 03:27:17;;;;;;;114.70;31.23;;;;;;;3.19;87.19;100444.89;2220339;80;21004;-81
2021/11/10 03:30:18;;;;;;;75.47;30.67;;;;;;;3.19;87.29;100435.86;2223810;79;21026;-79
2021/11/10 03:33:18;;;;;;;85.07;29.37;;;;;;;3.22;87.33;100432.59;2227097;80;20963;-81
2021/11/10 03:36:19;;;;;;;90.33;31.13;;;;;;;3.20;87.12;100433.78;2227565;80;21312;-81
2021/11/10 03:39:19;;;;;;;82.77;30.83;;;;;;;3.20;87.16;100432.89;2227220;80;21356;-82
2021/11/10 03:42:21;;;;;;;118.10;30.07;;;;;;;3.20;87.10;100429.91;2227116;80;20987;-81
2021/11/10 03:45:21;;;;;;;67.63;28.83;;;;;;;3.16;86.91;100426.63;2226894;80;20995;-80
2021/11/10 03:48:22;;;;;;;62.87;29.33;;;;;;;3.07;86.92;100423.44;2226882;80;20940;-84
2021/11/10 03:51:22;;;;;;;78.77;26.53;;;;;;;3.06;87.05;100423.34;2227204;80;21335;-81
2021/11/10 03:54:23;;;;;;;97.67;27.97;;;;;;;3.08;87.12;100420.07;2226711;80;21315;-82
2021/11/10 03:57:23;;;;;;;76.90;25.47;;;;;;;2.99;86.87;100411.72;2226912;80;20975;-80
2021/11/10 04:00:24;;;;;;;81.97;26.37;;;;;;;2.87;86.86;100410.91;2226971;80;21066;-81
2021/11/10 04:03:25;;;;;;;81.07;24.67;;;;;;;2.80;86.82;100402.26;2226794;80;20968;-81
2021/11/10 04:06:25;;;;;;;77.47;26.00;;;;;;;2.73;86.77;100406.50;2226252;80;21328;-81
2021/11/10 04:09:26;;;;;;;55.67;26.80;;;;;;;2.67;86.82;100400.94;2226249;80;20963;-80
2021/11/10 04:12:26;;;;;;;78.80;25.93;;;;;;;2.63;86.97;100398.55;2225983;80;20964;-82
2021/11/10 04:15:27;;;;;;;66.80;26.07;;;;;;;2.62;86.87;100392.89;2225674;80;20952;-81
2021/11/10 04:18:32;;;;;;;41.63;23.67;;;;;;;2.56;86.80;100386.89;2226052;80;21311;-81
2021/11/10 04:21:31;;;;;;;50.43;22.90;;;;;;;2.50;86.82;100375.27;2226346;79;21019;-80
2021/11/10 04:24:31;;;;;;;65.57;23.07;;;;;;;2.46;86.86;100370.30;2225993;80;21304;-80
2021/11/10 04:27:32;;;;;;;58.27;24.37;;;;;;;2.41;86.79;100366.52;2225982;80;20913;-80
2021/11/10 04:30:33;;;;;;;75.60;23.20;;;;;;;2.40;86.87;100362.16;2214173;80;21035;-81
2021/11/10 04:33:33;;;;;;;67.27;23.50;;;;;;;2.41;87.04;100357.50;2205243;81;20953;-80
2021/11/10 04:36:34;;;;;;;74.47;24.13;;;;;;;2.42;86.94;100363.55;2206366;81;21372;-81
2021/11/10 04:39:34;;;;;;;66.83;23.60;;;;;;;2.41;86.89;100347.59;2206254;81;21403;-79
2021/11/10 04:42:35;;;;;;;72.70;24.13;;;;;;;2.52;87.31;100341.08;2205445;81;20961;-78
2021/11/10 04:45:38;;;;;;;76.13;26.20;;;;;;;2.51;87.10;100344.84;2205079;81;20940;-79
2021/11/10 04:48:39;;;;;;;85.27;25.00;;;;;;;2.53;87.07;100344.55;2204785;81;20981;-77
2021/11/10 04:51:39;;;;;;;76.80;24.67;;;;;;;2.51;86.80;100339.28;2205077;81;20973;-78
2021/11/10 04:54:40;;;;;;;61.27;24.33;;;;;;;2.49;86.78;100343.45;2205522;81;21294;-78
2021/11/10 04:57:40;;;;;;;48.67;25.40;;;;;;;2.51;86.93;100346.13;2206189;81;21323;-78
2021/11/10 05:00:41;;;;;;;98.53;25.33;;;;;;;2.54;86.93;100355.36;2206020;81;21066;-78
2021/11/10 05:03:41;;;;;;;78.97;24.63;;;;;;;2.58;86.91;100362.50;2206114;81;20956;-78
2021/11/10 05:06:42;;;;;;;63.37;25.47;;;;;;;2.59;86.88;100356.95;2206363;81;20980;-78
2021/11/10 05:09:42;;;;;;;64.40;24.00;;;;;;;2.60;86.82;100358.38;2205639;81;21061;-77
2021/11/10 05:12:43;;;;;;;61.97;24.50;;;;;;;2.59;86.61;100352.69;2205506;81;20940;-77
2021/11/10 05:15:43;;;;;;;66.43;22.83;;;;;;;2.58;86.59;100346.14;2205785;81;20957;-78
2021/11/10 05:18:44;;;;;;;73.30;23.77;;;;;;;2.56;86.37;100339.59;2205866;81;20968;-77
2021/11/10 05:21:44;;;;;;;81.13;24.63;;;;;;;2.51;86.16;100344.84;2205636;81;20988;-76
2021/11/10 05:24:45;;;;;;;99.80;29.00;;;;;;;2.47;86.36;100354.05;2204588;81;20921;-77
2021/11/10 05:27:45;;;;;;;73.73;22.93;;;;;;;2.50;86.59;100342.66;2204077;81;20941;-77
2021/11/10 05:30:46;;;;;;;54.13;22.60;;;;;;;2.46;86.03;100341.95;2215729;79;21015;-78
2021/11/10 05:33:46;;;;;;;65.30;23.07;;;;;;;2.38;86.21;100348.27;2225121;80;21713;-77
2021/11/10 05:36:47;;;;;;;77.50;23.27;;;;;;;2.40;86.31;100336.78;2224979;80;20913;-77
2021/11/10 05:39:47;;;;;;;74.00;23.37;;;;;;;2.37;86.12;100340.05;2225114;80;20943;-77
2021/11/10 05:42:48;;;;;;;43.53;22.53;;;;;;;2.34;86.05;100341.52;2225435;80;20963;-77
2021/11/10 05:45:48;;;;;;;49.43;21.00;;;;;;;2.27;85.89;100332.48;2225156;80;20936;-77
2021/11/10 05:48:49;;;;;;;43.17;22.20;;;;;;;2.20;86.02;100347.91;2226305;80;21342;-76
2021/11/10 05:51:49;;;;;;;63.13;23.23;;;;;;;2.19;86.09;100346.52;2226225;80;20943;-77
2021/11/10 05:54:50;;;;;;;55.10;21.83;;;;;;;2.18;85.85;100348.59;2225957;80;20944;-77
2021/11/10 05:57:51;;;;;;;71.43;23.30;;;;;;;2.12;85.82;100352.05;2226021;80;20987;-77
2021/11/10 06:00:51;;;;;;;53.47;21.17;;;;;;;2.08;85.76;100350.94;2224785;80;21031;-76
2021/11/10 06:03:52;;;;;;;60.93;24.13;;;;;;;2.07;85.82;100355.98;2225094;80;20932;-77
2021/11/10 06:06:53;;;;;;;75.00;23.47;;;;;;;2.06;85.72;100347.36;2225453;80;20929;-77
2021/11/10 06:09:53;;;;;;;55.00;21.30;;;;;;;2.03;85.50;100349.72;2225129;80;20955;-77
2021/11/10 06:12:54;;;;;;;40.63;21.70;;;;;;;2.03;85.56;100353.98;2224397;80;21619;-77
2021/11/10 06:15:54;;;;;;;54.30;21.07;;;;;;;2.04;85.70;100353.20;2224157;80;20944;-78
2021/11/10 06:18:55;;;;;;;53.33;20.40;;;;;;;2.05;85.43;100358.84;2224453;80;21003;-77
2021/11/10 06:21:58;;;;;;;43.53;20.17;;;;;;;2.04;85.27;100355.77;2224513;80;21288;-76
2021/11/10 06:24:59;;;;;;;140.00;25.43;;;;;;;2.02;85.10;100362.50;2224571;80;21385;-77
2021/11/10 06:27:59;;;;;;;78.50;21.60;;;;;;;1.99;85.23;100363.57;2225152;80;20936;-77
2021/11/10 06:30:59;;;;;;;58.20;22.27;;;;;;;1.99;85.15;100361.00;2219598;80;21031;-78
2021/11/10 06:34:00;;;;;;;47.20;20.40;;;;;;;1.98;85.08;100364.36;2215506;80;20900;-77
2021/11/10 06:37:00;;;;;;;44.90;19.67;;;;;;;2.00;85.40;100359.81;2214946;80;20931;-78
2021/11/10 06:40:01;;;;;;;58.07;21.90;;;;;;;1.99;85.15;100358.42;2215507;80;20950;-77
2021/11/10 06:43:04;;;;;;;58.20;21.57;;;;;;;1.98;85.11;100365.64;2215192;80;20990;-77
2021/11/10 06:46:05;;;;;;;103.50;39.50;;;;;;;2.02;85.30;100366.36;2214534;80;20899;-78
2021/11/10 06:49:05;;;;;;;38.00;22.80;;;;;;;2.10;85.40;100363.53;2215180;80;21334;-78
2021/11/10 06:52:06;;;;;;;44.93;20.60;;;;;;;2.17;85.28;100357.11;2215360;80;20948;-81
2021/11/10 06:55:07;;;;;;;38.63;21.43;;;;;;;2.22;84.96;100359.61;2215884;80;21310;-82
2021/11/10 06:58:08;;;;;;;38.37;21.93;;;;;;;2.24;84.84;100355.45;2215409;80;20950;-84
2021/11/10 07:01:09;;;;;;;192.33;28.57;;;;;;;2.30;84.98;100355.87;2215468;80;20995;-84
2021/11/10 07:04:09;;;;;;;45.47;20.77;;;;;;;2.39;84.82;100355.61;2214557;80;21442;-81
2021/11/10 07:07:10;;;;;;;33.00;19.27;;;;;;;2.45;84.66;100354.34;2215625;80;20978;-81
2021/11/10 07:10:10;;;;;;;47.53;20.37;;;;;;;2.47;84.20;100356.63;2216346;80;20931;-79
2021/11/10 07:13:11;;;;;;;52.97;18.97;;;;;;;2.48;84.09;100346.81;2215662;80;21314;-79
2021/11/10 07:16:11;;;;;;;43.73;18.60;;;;;;;2.52;83.83;100350.49;2216229;80;21319;-79
2021/11/10 07:19:12;;;;;;;64.77;21.03;;;;;;;2.53;83.82;100344.55;2215985;80;20899;-80
2021/11/10 07:22:12;;;;;;;37.37;20.10;;;;;;;2.55;83.78;100342.97;2215604;80;20975;-83
2021/11/10 07:25:13;;;;;;;47.87;20.13;;;;;;;2.61;83.85;100342.52;2215684;80;20951;-80
2021/11/10 07:28:13;;;;;;;26.60;20.40;;;;;;;2.68;83.86;100341.73;2215981;80;20900;-81
2021/11/10 07:31:14;;;;;;;26.63;18.97;;;;;;;2.75;83.74;100336.20;2216504;80;21042;-81
2021/11/10 07:34:14;;;;;;;28.83;20.60;;;;;;;2.88;83.87;100343.95;2218216;80;21124;-80
2021/11/10 07:37:15;;;;;;;33.40;20.50;;;;;;;2.88;83.37;100346.53;2218749;80;20971;-82
2021/11/10 07:40:16;;;;;;;32.70;20.30;;;;;;;2.89;83.51;100343.55;2218067;80;20991;-81
2021/11/10 07:43:16;;;;;;;42.83;20.97;;;;;;;3.02;83.50;100340.09;2218413;80;21759;-81
2021/11/10 07:46:18;;;;;;;41.60;21.63;;;;;;;3.18;83.52;100339.00;2218065;80;20932;-82
2021/11/10 07:49:19;;;;;;;37.70;22.53;;;;;;;3.29;83.42;100344.84;2218259;80;20912;-81
2021/11/10 07:52:20;;;;;;;32.73;22.23;;;;;;;3.44;83.29;100343.25;2217377;80;20901;-81
2021/11/10 07:55:20;;;;;;;39.67;22.30;;;;;;;3.58;83.06;100332.53;2217779;80;20908;-80
2021/11/10 07:58:21;;;;;;;31.10;21.13;;;;;;;3.67;82.80;100334.00;2218631;80;20909;-81
2021/11/10 08:01:21;;;;;;;36.20;22.63;;;;;;;3.79;82.57;100336.06;2217705;80;21399;-81
2021/11/10 08:04:21;;;;;;;29.33;21.50;;;;;;;3.83;82.19;100328.09;2217767;80;20932;-80
2021/11/10 08:07:22;;;;;;;34.80;21.03;;;;;;;3.81;82.16;100326.72;2218368;80;20936;-81
2021/11/10 08:10:23;;;;;;;31.10;22.23;;;;;;;3.88;81.98;100324.52;2218159;80;21360;-81
2021/11/10 08:13:24;;;;;;;35.57;23.13;;;;;;;3.92;82.09;100327.77;2218704;80;20967;-81
2021/11/10 08:16:25;;;;;;;33.80;22.37;;;;;;;3.99;81.95;100325.66;2218499;80;20968;-81
2021/11/10 08:19:26;;;;;;;40.60;22.30;;;;;;;4.04;81.77;100320.77;2218170;80;21370;-81
2021/11/10 08:22:26;;;;;;;30.80;22.57;;;;;;;4.04;81.36;100311.73;2217696;80;21015;-80
2021/11/10 08:25:27;;;;;;;74.93;24.53;;;;;;;4.08;81.91;100302.97;2218613;80;20924;-80
2021/11/10 08:28:28;;;;;;;28.77;21.37;;;;;;;4.25;82.07;100300.09;2217874;80;20971;-80
2021/11/10 08:31:28;;;;;;;41.07;30.30;;;;;;;4.39;81.65;100291.50;2211218;80;21008;-80
2021/11/10 08:34:29;;;;;;;38.40;24.40;;;;;;;4.54;81.43;100288.92;2204712;81;21351;-80
2021/11/10 08:37:29;;;;;;;32.40;24.50;;;;;;;4.75;81.50;100297.04;2205129;81;20940;-81
2021/11/10 08:40:30;;;;;;;51.53;23.70;;;;;;;4.92;80.78;100298.01;2205350;81;21004;-80
2021/11/10 08:43:30;;;;;;;33.93;23.83;;;;;;;4.99;80.26;100291.08;2204074;81;21023;-80
2021/11/10 08:46:31;;;;;;;31.27;21.97;;;;;;;5.01;79.75;100288.18;2204263;81;20933;-79
2021/11/10 08:49:32;;;;;;;30.63;22.30;;;;;;;5.11;79.72;100291.77;2204077;81;21336;-79
2021/11/10 08:52:33;;;;;;;30.53;23.60;;;;;;;5.17;79.31;100283.46;2204044;81;20988;-82
2021/11/10 08:55:33;;;;;;;31.27;23.83;;;;;;;5.19;79.36;100279.27;2204319;81;20984;-80
2021/11/10 08:58:34;;;;;;;66.03;25.60;;;;;;;5.22;79.32;100279.47;2205043;81;20928;-78
2021/11/10 09:01:37;;;;;;;35.00;24.47;;;;;;;5.24;79.19;100278.75;2205413;81;21036;-81
2021/11/10 09:04:37;;;;;;;29.87;22.50;;;;;;;5.29;79.30;100283.77;2204788;81;20996;-81
2021/11/10 09:07:37;;;;;;;205.13;32.70;;;;;;;5.29;79.15;100281.19;2204148;81;20991;-78
2021/11/10 09:10:44;;;;;;;34.30;21.63;;;;;;;5.42;79.52;100282.75;2204774;81;20988;-81
2021/11/10 09:13:45;;;;;;;26.93;20.97;;;;;;;5.39;78.30;100282.58;2204647;81;21364;-81
2021/11/10 09:16:45;;;;;;;39.63;24.33;;;;;;;5.30;78.64;100284.66;2204461;81;21387;-81
2021/11/10 09:22:48;;;;;;;30.37;22.10;;;;;;;5.44;79.41;100290.20;2217285;79;21356;-81
2021/11/10 09:25:49;;;;;;;37.10;21.87;;;;;;;5.57;79.16;100290.06;2204428;81;20917;-81
2021/11/10 09:28:49;;;;;;;31.80;23.63;;;;;;;5.63;78.59;100275.26;2203916;81;20944;-79
2021/11/10 09:31:50;;;;;;;28.73;21.90;;;;;;;5.56;78.51;100270.55;2203845;79;21679;-80
2021/11/10 09:34:51;;;;;;;31.33;23.53;;;;;;;5.56;79.07;100257.60;2204196;81;20960;-81
2021/11/10 09:37:52;;;;;;;30.50;24.00;;;;;;;5.72;79.44;100252.44;2204218;81;20964;-80
2021/11/10 09:40:58;;;;;;;32.07;23.60;;;;;;;5.93;78.56;100251.01;2203961;81;21015;-81
2021/11/10 09:43:58;;;;;;;36.30;24.53;;;;;;;5.87;79.24;100253.65;2205495;79;20937;-79
2021/11/10 09:47:00;;;;;;;32.40;22.70;;;;;;;5.87;79.24;100253.65;2204801;79;20977;-80
2021/11/10 09:50:00;;;;;;;29.67;21.90;;;;;;;5.85;78.27;100256.56;2204211;80;21353;-80
2021/11/10 09:53:00;;;;;;;29.73;22.10;;;;;;;5.84;78.54;100255.67;2204541;81;20944;-79
2021/11/10 09:56:01;;;;;;;58.03;24.80;;;;;;;5.88;78.69;100251.55;2204882;81;20976;-80
2021/11/10 09:59:03;;;;;;;34.03;24.10;;;;;;;5.92;78.79;100261.30;2205989;81;20964;-81
2021/11/10 10:02:11;;;;;;;36.03;25.30;;;;;;;6.86;82.19;100249.28;2205519;81;21059;-80
2021/11/10 10:05:06;;;;;;;41.43;24.87;;;;;;;6.85;78.26;100248.80;2205901;79;21020;-80
2021/11/10 10:08:06;;;;;;;36.27;28.03;;;;;;;6.69;77.78;100238.48;2204980;81;20967;-80
2021/11/10 10:11:07;;;;;;;48.97;24.77;;;;;;;6.70;78.29;100241.56;2203940;81;21400;-81
2021/11/10 10:14:07;;;;;;;30.70;22.10;;;;;;;6.83;78.44;100230.96;2204450;81;21334;-81
2021/11/10 10:17:08;;;;;;;31.73;23.33;;;;;;;6.87;78.28;100233.30;2203800;81;20972;-80
2021/11/10 10:20:09;;;;;;;32.60;23.57;;;;;;;6.93;78.15;100231.89;2203773;81;20964;-79
2021/11/10 10:23:10;;;;;;;29.23;22.97;;;;;;;7.12;78.23;100227.20;2204008;81;20996;-81
2021/11/10 10:26:13;;;;;;;54.70;24.67;;;;;;;7.20;77.85;100222.37;2204717;81;20901;-81
2021/11/10 10:29:17;;;;;;;34.70;22.67;;;;;;;7.25;77.57;100216.98;2192152;81;21295;-80
2021/11/10 10:32:17;;;;;;;27.80;21.73;;;;;;;7.31;77.24;100219.86;2204112;80;21041;-79
2021/11/10 10:35:18;;;;;;;28.23;20.90;;;;;;;7.34;76.90;100209.61;2204625;81;20968;-80
2021/11/10 10:38:18;;;;;;;26.70;21.17;;;;;;;7.37;76.61;100200.66;2204016;81;20940;-81
2021/11/10 10:41:19;;;;;;;24.47;20.23;;;;;;;7.42;76.62;100200.88;2204001;81;20988;-79
2021/11/10 10:44:20;;;;;;;90.87;25.80;;;;;;;7.42;76.05;100195.27;2204322;81;21332;-80
2021/11/10 10:47:20;;;;;;;27.73;21.20;;;;;;;7.43;76.09;100190.55;2203872;81;20968;-81
2021/11/10 10:50:21;;;;;;;53.23;37.93;;;;;;;7.51;76.39;100183.11;2204348;81;20941;-80
2021/11/10 10:53:21;;;;;;;32.77;22.60;;;;;;;7.56;76.21;100184.20;2204417;81;20972;-80
2021/11/10 10:56:22;;;;;;;30.50;20.50;;;;;;;7.59;76.06;100184.34;2204020;81;20932;-80
2021/11/10 10:59:22;;;;;;;23.67;20.37;;;;;;;7.65;76.08;100178.11;2203827;81;20952;-78
2021/11/10 11:02:23;;;;;;;30.20;20.87;;;;;;;7.66;75.50;100173.39;2204286;81;21431;-80
2021/11/10 11:05:23;;;;;;;28.33;19.23;;;;;;;7.73;75.81;100171.55;2204036;81;20984;-81
2021/11/10 11:08:24;;;;;;;32.93;19.77;;;;;;;7.84;75.59;100164.25;2203992;81;21000;-81
2021/11/10 11:11:33;;;;;;;153.20;27.63;;;;;;;7.91;75.49;100166.30;2203476;81;21338;-79
2021/11/10 11:14:37;;;;;;;28.63;20.00;;;;;;;7.95;75.29;100161.29;2204634;79;21044;-80
2021/11/10 11:17:29;;;;;;;330.33;42.07;;;;;;;8.02;75.15;100157.66;2205841;79;21008;-79
2021/11/10 11:20:30;;;;;;;25.63;20.23;;;;;;;8.12;75.31;100147.70;2204667;81;20893;-79
2021/11/10 11:23:30;;;;;;;26.10;19.57;;;;;;;8.14;74.44;100145.17;2205765;81;20972;-81
2021/11/10 11:26:31;;;;;;;53.57;22.00;;;;;;;8.16;74.61;100150.02;2204297;81;20961;-79
2021/11/10 11:29:31;;;;;;;23.17;19.13;;;;;;;8.20;74.25;100137.20;2204408;81;21683;-80
2021/11/10 11:32:32;;;;;;;30.60;18.70;;;;;;;8.26;74.32;100137.88;2203863;79;21761;-81
2021/11/10 11:35:32;;;;;;;22.50;17.73;;;;;;;8.29;74.22;100128.48;2204503;81;20902;-80
2021/11/10 11:38:33;;;;;;;84.90;23.40;;;;;;;8.34;73.44;100120.91;2204723;81;20902;-79
2021/11/10 11:41:34;;;;;;;32.23;18.93;;;;;;;8.38;72.61;100116.71;2205730;81;20956;-80
2021/11/10 11:44:35;;;;;;;23.27;18.07;;;;;;;8.36;72.74;100120.97;2205292;81;20996;-79
2021/11/10 11:47:35;;;;;;;28.90;18.30;;;;;;;8.38;73.57;100118.91;2205951;81;21379;-80
2021/11/10 11:50:36;;;;;;;25.60;18.83;;;;;;;8.45;72.49;100107.91;2205325;81;20929;-79
2021/11/10 11:53:36;;;;;;;292.77;34.40;;;;;;;8.50;73.14;100109.40;2204813;81;20976;-79
2021/11/10 11:56:37;;;;;;;29.77;16.47;;;;;;;8.55;72.66;100108.76;2205090;81;20929;-81
2021/11/10 11:59:38;;;;;;;28.87;17.07;;;;;;;8.57;72.13;100106.22;2204693;81;20968;-79
2021/11/10 12:02:38;;;;;;;44.60;20.33;;;;;;;8.62;72.35;100105.57;2205336;81;20980;-79
2021/11/10 12:05:39;;;;;;;57.70;19.83;;;;;;;8.70;72.08;100099.81;2206002;81;20949;-80
2021/11/10 12:08:39;;;;;;;292.43;35.53;;;;;;;8.75;72.02;100091.36;2205820;81;20984;-79
2021/11/10 12:11:40;;;;;;;27.80;18.90;;;;;;;8.81;71.57;100095.91;2204744;81;20941;-79
2021/11/10 12:14:42;;;;;;;26.97;19.17;;;;;;;8.82;70.82;100095.08;2204739;81;20944;-80
2021/11/10 12:17:43;;;;;;;34.43;22.13;;;;;;;8.77;70.75;100083.19;2205214;81;21328;-80
2021/11/10 12:20:44;;;;;;;29.00;21.43;;;;;;;8.77;71.35;100075.80;2205183;81;20937;-80
2021/11/10 12:23:44;;;;;;;28.67;19.20;;;;;;;8.82;71.57;100074.25;2205051;81;20941;-79
2021/11/10 12:26:44;;;;;;;26.13;20.20;;;;;;;8.81;71.17;100069.88;2204820;81;21360;-79
2021/11/10 12:29:45;;;;;;;26.57;20.13;;;;;;;8.76;70.91;100068.81;2203566;81;20941;-82
2021/11/10 12:32:45;;;;;;;48.20;20.97;;;;;;;8.76;71.51;100050.17;2203855;80;21008;-79
2021/11/10 12:35:47;;;;;;;28.37;21.67;;;;;;;8.79;71.43;100044.19;2204667;81;20937;-79
2021/11/10 12:38:48;;;;;;;31.93;21.70;;;;;;;8.82;71.52;100041.29;2204078;81;20948;-79
2021/11/10 12:41:49;;;;;;;30.07;22.13;;;;;;;8.85;71.45;100047.03;2204097;81;20972;-79
2021/11/10 12:44:49;;;;;;;32.13;23.10;;;;;;;8.82;70.72;100037.39;2204080;81;20920;-79
2021/11/10 12:47:50;;;;;;;31.23;22.83;;;;;;;8.74;70.95;100041.41;2203125;81;20929;-79
2021/11/10 12:50:52;;;;;;;170.93;31.63;;;;;;;8.65;70.97;100037.13;2203731;81;21874;-78
2021/11/10 12:53:52;;;;;;;41.87;24.33;;;;;;;8.66;71.32;100036.72;2203801;81;21404;-81
2021/11/10 12:56:53;;;;;;;30.13;22.70;;;;;;;8.67;71.43;100033.28;2204541;81;20976;-80
2021/11/10 12:59:53;;;;;;;32.47;22.87;;;;;;;8.63;71.22;100027.07;2204648;81;20945;-80
2021/11/10 13:02:54;;;;;;;33.40;23.90;;;;;;;8.62;71.30;100018.79;2204610;81;20993;-80
2021/11/10 13:06:04;;;;;;;36.07;24.10;;;;;;;8.60;70.80;100017.84;2204231;81;21427;-79
2021/11/10 13:09:01;;;;;;;32.93;22.40;;;;;;;8.56;71.43;100013.35;2204977;79;21486;-79
2021/11/10 13:11:59;;;;;;;32.80;23.67;;;;;;;8.56;71.54;100015.95;2204924;79;21066;-79
2021/11/10 13:14:59;;;;;;;34.60;24.67;;;;;;;8.55;71.73;100004.66;2203689;81;20995;-79
2021/11/10 13:18:03;;;;;;;33.63;24.50;;;;;;;8.53;71.55;100009.33;2204206;81;20976;-79
2021/11/10 13:21:03;;;;;;;31.07;23.97;;;;;;;8.47;71.73;100006.49;2204234;81;20944;-79
2021/11/10 13:24:04;;;;;;;32.60;23.57;;;;;;;8.47;71.66;99998.69;2204449;81;20941;-79
2021/11/10 13:27:05;;;;;;;30.23;23.10;;;;;;;8.45;72.10;99999.05;2202890;81;20984;-79
2021/11/10 13:30:06;;;;;;;104.87;24.03;;;;;;;8.46;72.34;99999.52;2204238;81;21622;-79
2021/11/10 13:33:07;;;;;;;33.00;20.77;;;;;;;8.46;72.06;99996.91;2215977;79;21014;-80
2021/11/10 13:36:07;;;;;;;29.27;19.87;;;;;;;8.44;71.94;99992.95;2224680;80;21616;-81
2021/11/10 13:39:11;;;;;;;29.33;21.23;;;;;;;8.45;72.29;99991.23;2225395;80;20940;-79
2021/11/10 13:42:10;;;;;;;50.83;36.53;;;;;;;8.44;72.39;99998.57;2226491;79;21016;-81
2021/11/10 13:45:11;;;;;;;30.83;23.20;;;;;;;8.41;72.27;99999.34;2225852;80;20983;-78
2021/11/10 13:48:11;;;;;;;33.47;20.90;;;;;;;8.37;72.39;100000.05;2225222;80;21698;-80
2021/11/10 13:51:14;;;;;;;30.10;20.67;;;;;;;8.34;72.58;100000.34;2212925;80;21272;-80
2021/11/10 13:54:17;;;;;;;31.10;20.13;;;;;;;8.31;72.86;99991.56;2225040;80;20932;-79